Time;durP1;ratioP1;P1;durP2;ratioP2;P2;SDS_P1;SDS_P2;PMS_P1;PMS_P2;Temp;Humidity;BMP_temperature;BMP_pressure;BME280_temperature;BME280_humidity;BME280_pressure;Samples;Min_cycle;Max_cycle;Signal;HPM_P1;HPM_P2
2021/11/15 00:00:58;;;;;;;11.70;9.70;;;7.30;99.90;;;;;;5042816;28;20014;-75
2021/11/15 00:03:25;;;;;;;11.45;9.18;;;7.30;99.90;;;;;;5041319;28;20026;-75
2021/11/15 00:05:51;;;;;;;12.82;9.82;;;7.30;99.90;;;;;;5042911;28;20051;-75
2021/11/15 00:08:16;;;;;;;105.90;66.03;;;7.30;99.90;;;;;;5047283;28;20357;-75
2021/11/15 00:10:42;;;;;;;17.70;13.38;;;7.30;99.90;;;;;;5039648;28;20026;-75
2021/11/15 00:13:08;;;;;;;13.70;11.38;;;7.30;99.90;;;;;;5046202;28;20025;-75
2021/11/15 00:15:34;;;;;;;13.77;10.68;;;7.30;99.90;;;;;;5038620;28;20052;-75
2021/11/15 00:18:00;;;;;;;13.45;11.52;;;7.20;99.90;;;;;;5038497;28;20026;-75
2021/11/15 00:20:27;;;;;;;13.02;10.20;;;7.30;99.90;;;;;;5043821;28;20049;-75
2021/11/15 00:22:52;;;;;;;12.32;10.00;;;7.30;99.90;;;;;;5043060;28;20432;-75
2021/11/15 00:25:18;;;;;;;12.68;9.85;;;7.30;99.90;;;;;;5041440;28;20052;-74
2021/11/15 00:27:44;;;;;;;13.73;10.88;;;7.30;99.90;;;;;;5043202;28;20060;-74
2021/11/15 00:30:12;;;;;;;14.70;11.57;;;7.30;99.90;;;;;;5038981;28;20116;-74
2021/11/15 00:32:38;;;;;;;12.98;10.75;;;7.30;99.90;;;;;;5042988;28;20025;-75
2021/11/15 00:35:05;;;;;;;13.60;10.15;;;7.30;99.90;;;;;;5039703;28;20079;-75
2021/11/15 00:37:30;;;;;;;14.40;10.60;;;7.30;99.90;;;;;;5042698;28;20539;-75
2021/11/15 00:39:56;;;;;;;15.18;11.38;;;7.30;99.90;;;;;;5042657;28;20144;-75
2021/11/15 00:42:22;;;;;;;15.07;11.70;;;7.30;99.90;;;;;;5046316;28;20479;-75
2021/11/15 00:44:48;;;;;;;14.48;12.10;;;7.30;99.90;;;;;;5039663;28;20032;-74
2021/11/15 00:47:13;;;;;;;15.80;11.50;;;7.30;99.90;;;;;;5046954;28;20017;-74
2021/11/15 00:49:39;;;;;;;15.48;11.80;;;7.30;99.90;;;;;;5039656;28;20032;-74
2021/11/15 00:52:05;;;;;;;13.32;10.90;;;7.30;99.90;;;;;;5036451;28;20087;-74
2021/11/15 00:54:31;;;;;;;13.57;10.50;;;7.30;99.90;;;;;;5047073;28;20018;-73
2021/11/15 00:56:56;;;;;;;15.15;11.55;;;7.30;99.90;;;;;;5052917;28;20096;-74
2021/11/15 00:59:22;;;;;;;13.18;10.85;;;7.30;99.90;;;;;;5050581;28;20043;-74
2021/11/15 01:01:47;;;;;;;14.68;11.63;;;7.20;99.90;;;;;;5042784;28;20028;-74
2021/11/15 01:04:13;;;;;;;14.45;11.23;;;7.20;99.90;;;;;;5041359;28;20356;-74
2021/11/15 01:06:39;;;;;;;13.70;10.70;;;7.20;99.90;;;;;;5042760;28;20501;-74
2021/11/15 01:09:05;;;;;;;13.95;11.32;;;7.20;99.90;;;;;;5039372;28;20057;-74
2021/11/15 01:11:31;;;;;;;15.10;11.10;;;7.20;99.90;;;;;;5043391;28;20486;-74
2021/11/15 01:13:57;;;;;;;14.57;11.80;;;7.20;99.90;;;;;;5040770;28;20101;-74
2021/11/15 01:16:23;;;;;;;14.68;11.23;;;7.30;99.90;;;;;;5041198;28;20064;-74
2021/11/15 01:18:50;;;;;;;14.50;11.95;;;7.30;99.90;;;;;;5047138;28;20100;-75
2021/11/15 01:21:16;;;;;;;15.38;12.27;;;7.30;99.90;;;;;;5040999;28;20113;-76
2021/11/15 01:23:43;;;;;;;16.75;12.50;;;7.30;99.90;;;;;;5037381;28;20029;-76
2021/11/15 01:26:10;;;;;;;15.70;12.23;;;7.30;99.90;;;;;;5024113;28;20022;-76
2021/11/15 01:28:36;;;;;;;15.23;12.15;;;7.30;99.90;;;;;;5028296;28;20026;-76
2021/11/15 01:31:02;;;;;;;15.25;12.27;;;7.30;99.90;;;;;;5023406;28;20036;-75
2021/11/15 01:33:28;;;;;;;14.30;11.75;;;7.20;99.90;;;;;;5018901;28;20036;-76
2021/11/15 01:35:53;;;;;;;16.05;11.50;;;7.20;99.90;;;;;;5024806;28;20104;-74
2021/11/15 01:38:19;;;;;;;15.07;12.13;;;7.30;99.90;;;;;;5021000;28;20036;-74
2021/11/15 01:40:45;;;;;;;15.80;12.10;;;7.20;99.90;;;;;;5023846;28;20022;-74
2021/11/15 01:43:10;;;;;;;14.95;11.68;;;7.20;99.90;;;;;;5031262;28;20124;-75
2021/11/15 01:45:38;;;;;;;14.68;12.23;;;7.20;99.90;;;;;;5024240;28;20030;-75
2021/11/15 01:48:06;;;;;;;19.48;12.23;;;7.20;99.90;;;;;;5027560;28;20108;-75
2021/11/15 01:50:33;;;;;;;14.77;11.93;;;7.20;99.90;;;;;;5024541;28;20389;-75
2021/11/15 01:53:01;;;;;;;15.55;11.85;;;7.20;99.90;;;;;;5020832;28;20116;-76
2021/11/15 01:55:28;;;;;;;16.98;11.88;;;7.30;99.90;;;;;;5022153;28;20091;-76
2021/11/15 01:57:59;;;;;;;16.17;13.02;;;7.20;99.90;;;;;;5027381;28;20477;-75
2021/11/15 02:00:32;;;;;;;16.83;12.00;;;7.20;99.90;;;;;;5025413;28;20018;-75
2021/11/15 02:03:00;;;;;;;18.77;13.30;;;7.20;99.90;;;;;;5015026;28;20108;-75
2021/11/15 02:05:25;;;;;;;17.30;13.23;;;7.20;99.90;;;;;;5026224;28;20049;-75
2021/11/15 02:07:51;;;;;;;15.80;12.00;;;7.20;99.90;;;;;;5020432;28;20476;-75
2021/11/15 02:10:17;;;;;;;18.88;14.18;;;7.10;99.90;;;;;;5020401;28;20045;-75
2021/11/15 02:12:43;;;;;;;16.50;12.43;;;7.20;99.90;;;;;;5026950;28;20053;-76
2021/11/15 02:15:11;;;;;;;16.90;12.73;;;7.20;99.90;;;;;;5024687;28;20025;-75
2021/11/15 02:17:38;;;;;;;17.38;13.13;;;7.20;99.90;;;;;;5020392;28;20055;-75
2021/11/15 02:20:06;;;;;;;17.33;12.95;;;7.20;99.90;;;;;;5021153;28;20025;-75
2021/11/15 02:22:32;;;;;;;19.85;13.05;;;7.20;99.90;;;;;;5025764;28;20547;-75
2021/11/15 02:25:00;;;;;;;18.30;13.02;;;7.20;99.90;;;;;;5025273;28;20049;-75
2021/11/15 02:27:26;;;;;;;19.63;14.35;;;7.20;99.90;;;;;;5032067;28;20021;-76
2021/11/15 02:29:52;;;;;;;18.88;13.27;;;7.20;99.90;;;;;;5020379;28;20026;-75
2021/11/15 02:32:18;;;;;;;17.55;13.20;;;7.20;99.90;;;;;;5026948;28;20464;-76
2021/11/15 02:34:44;;;;;;;17.98;13.80;;;7.10;99.90;;;;;;5029386;28;20021;-75
2021/11/15 02:37:10;;;;;;;19.42;14.07;;;7.10;99.90;;;;;;5036418;28;20112;-75
2021/11/15 02:39:36;;;;;;;18.05;13.60;;;7.20;99.90;;;;;;5024572;28;20068;-75
2021/11/15 02:42:03;;;;;;;16.98;13.20;;;7.20;99.90;;;;;;5036584;28;20025;-75
2021/11/15 02:44:28;;;;;;;19.15;13.32;;;7.10;99.90;;;;;;5023076;28;20022;-76
2021/11/15 02:46:54;;;;;;;19.10;13.52;;;7.10;99.90;;;;;;5028021;28;20026;-76
2021/11/15 02:49:20;;;;;;;17.88;12.80;;;7.10;99.90;;;;;;5027557;28;20038;-75
2021/11/15 02:51:45;;;;;;;16.98;14.05;;;7.10;99.90;;;;;;5025655;28;20061;-75
2021/11/15 02:54:11;;;;;;;19.20;14.13;;;7.20;99.90;;;;;;5026458;28;20103;-75
2021/11/15 02:56:40;;;;;;;16.35;12.60;;;7.10;99.90;;;;;;5019852;28;20036;-76
2021/11/15 02:59:06;;;;;;;16.50;13.30;;;7.10;99.90;;;;;;5019521;28;20026;-75
2021/11/15 03:01:31;;;;;;;18.73;13.55;;;7.10;99.90;;;;;;5025494;28;20025;-75
2021/11/15 03:03:57;;;;;;;17.52;12.80;;;7.10;99.90;;;;;;5026216;28;20042;-74
2021/11/15 03:06:23;;;;;;;15.38;11.60;;;7.20;99.90;;;;;;5020070;28;20113;-76
2021/11/15 03:08:48;;;;;;;15.20;12.60;;;7.20;99.90;;;;;;5019095;28;20069;-76
2021/11/15 03:11:14;;;;;;;17.42;13.32;;;7.10;99.90;;;;;;5019563;28;20112;-74
2021/11/15 03:13:46;;;;;;;14.50;11.93;;;7.10;99.90;;;;;;5019117;28;20040;-75
2021/11/15 03:16:12;;;;;;;15.18;12.27;;;7.10;99.90;;;;;;5020307;28;20025;-75
2021/11/15 03:18:40;;;;;;;16.83;12.65;;;7.10;99.90;;;;;;5031170;28;20148;-75
2021/11/15 03:21:21;;;;;;;16.70;12.55;;;7.10;99.90;;;;;;5020562;28;20021;-75
2021/11/15 03:23:50;;;;;;;14.50;11.57;;;7.20;99.90;;;;;;5032488;28;20058;-74
2021/11/15 03:26:16;;;;;;;14.05;11.40;;;7.10;99.90;;;;;;5032352;28;20021;-74
2021/11/15 03:28:48;;;;;;;13.43;10.63;;;7.10;99.90;;;;;;5019074;28;20025;-75
2021/11/15 03:31:25;;;;;;;15.77;12.02;;;7.10;99.90;;;;;;5019754;28;20030;-74
2021/11/15 03:33:54;;;;;;;14.40;11.32;;;7.10;99.90;;;;;;5031420;28;20072;-74
2021/11/15 03:36:20;;;;;;;12.43;10.73;;;7.10;99.90;;;;;;5032145;28;20026;-74
2021/11/15 03:38:46;;;;;;;14.68;10.95;;;7.00;99.90;;;;;;5032556;28;20724;-75
2021/11/15 03:41:12;;;;;;;15.30;11.85;;;7.00;99.90;;;;;;5019712;28;20086;-75
2021/11/15 03:43:38;;;;;;;12.32;10.20;;;7.00;99.90;;;;;;5025432;28;20061;-75
2021/11/15 03:46:04;;;;;;;14.02;11.23;;;7.10;99.90;;;;;;5025172;28;20028;-75
2021/11/15 03:48:30;;;;;;;15.20;11.80;;;7.00;99.90;;;;;;5018795;28;20026;-75
2021/11/15 03:50:55;;;;;;;15.07;11.25;;;7.00;99.90;;;;;;5018724;28;20088;-76
2021/11/15 03:53:24;;;;;;;13.80;10.77;;;7.00;99.90;;;;;;5030637;28;20034;-75
2021/11/15 03:55:51;;;;;;;14.82;10.88;;;7.10;99.90;;;;;;5018758;28;20018;-76
2021/11/15 03:58:16;;;;;;;14.43;11.20;;;7.00;99.90;;;;;;5025021;28;20099;-76
2021/11/15 04:00:42;;;;;;;15.23;11.43;;;7.00;99.90;;;;;;5012023;28;20673;-76
2021/11/15 04:03:16;;;;;;;14.40;11.48;;;7.00;99.90;;;;;;5017733;28;20052;-76
2021/11/15 04:05:48;;;;;;;15.43;11.63;;;7.10;99.90;;;;;;5017407;28;20507;-76
2021/11/15 04:08:14;;;;;;;14.88;11.40;;;7.00;99.90;;;;;;5023230;28;20065;-76
2021/11/15 04:10:42;;;;;;;16.80;12.63;;;7.00;99.90;;;;;;5025087;28;20061;-76
2021/11/15 04:13:35;;;;;;;13.93;11.05;;;7.00;99.90;;;;;;5020811;28;20033;-76
2021/11/15 04:16:05;;;;;;;14.23;11.25;;;7.00;99.90;;;;;;5016895;28;20091;-77
2021/11/15 04:18:34;;;;;;;15.85;11.65;;;7.00;99.90;;;;;;5017233;28;20026;-75
2021/11/15 04:21:01;;;;;;;16.17;12.52;;;7.00;99.90;;;;;;5031573;28;20021;-76
2021/11/15 04:23:26;;;;;;;15.38;11.75;;;7.00;99.90;;;;;;5017146;28;20420;-74
2021/11/15 04:25:52;;;;;;;16.20;12.05;;;7.00;99.90;;;;;;5024858;28;20058;-75
2021/11/15 04:28:18;;;;;;;16.38;11.95;;;7.00;99.90;;;;;;5024875;28;20029;-74
2021/11/15 04:30:44;;;;;;;15.25;11.80;;;7.00;99.90;;;;;;5018582;28;20032;-75
2021/11/15 04:33:10;;;;;;;16.38;12.70;;;7.00;99.90;;;;;;5019182;28;20053;-74
2021/11/15 04:35:36;;;;;;;15.98;12.52;;;7.00;99.90;;;;;;5031694;28;20022;-76
2021/11/15 04:38:03;;;;;;;16.02;12.20;;;6.90;99.90;;;;;;5031423;28;20475;-76
2021/11/15 04:40:30;;;;;;;16.60;12.38;;;7.00;99.90;;;;;;5023343;28;20018;-76
2021/11/15 04:42:55;;;;;;;18.17;13.13;;;7.00;99.90;;;;;;5023638;28;20021;-76
2021/11/15 04:45:21;;;;;;;16.65;12.80;;;6.90;99.90;;;;;;5010775;28;20117;-75
2021/11/15 04:47:49;;;;;;;17.73;12.85;;;6.90;99.90;;;;;;5027250;28;20017;-75
2021/11/15 04:50:17;;;;;;;19.63;13.98;;;7.00;99.90;;;;;;5024299;28;20049;-75
2021/11/15 04:52:43;;;;;;;17.60;13.93;;;6.80;99.90;;;;;;5012065;28;20029;-76
2021/11/15 04:55:11;;;;;;;19.25;14.00;;;6.80;99.90;;;;;;5018777;28;20017;-77
2021/11/15 04:57:37;;;;;;;20.33;15.32;;;6.80;99.90;;;;;;5020459;28;20030;-77
2021/11/15 05:00:13;;;;;;;23.38;16.35;;;6.80;99.90;;;;;;5035124;28;20590;-77
2021/11/15 05:02:39;;;;;;;21.67;15.85;;;6.80;99.90;;;;;;5020241;28;20522;-76
2021/11/15 05:05:05;;;;;;;19.00;14.82;;;6.80;99.90;;;;;;5033872;28;20025;-78
2021/11/15 05:07:30;;;;;;;21.00;15.68;;;6.80;99.90;;;;;;5021490;28;20369;-77
2021/11/15 05:09:56;;;;;;;22.58;16.80;;;6.80;99.90;;;;;;5024683;28;20026;-75
2021/11/15 05:12:22;;;;;;;22.85;16.80;;;6.80;99.90;;;;;;5026927;28;20034;-74
2021/11/15 05:14:47;;;;;;;23.60;17.63;;;6.70;99.90;;;;;;5025183;28;20369;-75
2021/11/15 05:17:13;;;;;;;21.77;17.00;;;6.70;99.90;;;;;;5031240;28;20495;-75
2021/11/15 05:19:38;;;;;;;44.95;27.35;;;6.70;99.90;;;;;;5025145;28;20033;-77
2021/11/15 05:22:04;;;;;;;35.03;22.50;;;6.70;99.90;;;;;;5020009;28;20028;-76
2021/11/15 05:24:30;;;;;;;26.25;19.65;;;6.70;99.90;;;;;;5024493;28;20057;-75
2021/11/15 05:26:55;;;;;;;41.28;29.08;;;6.70;99.90;;;;;;5031478;28;20025;-75
2021/11/15 05:29:21;;;;;;;35.00;25.40;;;6.70;99.90;;;;;;5024365;28;20037;-73
2021/11/15 05:31:46;;;;;;;25.98;19.00;;;6.70;99.90;;;;;;5027707;28;20034;-73
2021/11/15 05:34:12;;;;;;;25.33;18.95;;;6.70;99.90;;;;;;5024786;28;20025;-74
2021/11/15 05:36:37;;;;;;;27.15;19.10;;;6.70;99.90;;;;;;5031419;28;20037;-75
2021/11/15 05:39:04;;;;;;;24.85;18.50;;;6.70;99.90;;;;;;5024091;28;20073;-75
2021/11/15 05:41:30;;;;;;;25.48;18.33;;;6.70;99.90;;;;;;5019747;28;20025;-75
2021/11/15 05:43:55;;;;;;;24.63;18.05;;;6.60;99.90;;;;;;5023264;28;20029;-75
2021/11/15 05:46:21;;;;;;;26.83;19.27;;;6.60;99.90;;;;;;5026565;28;20025;-76
2021/11/15 05:48:47;;;;;;;27.25;18.83;;;6.60;99.90;;;;;;5014564;28;20029;-75
2021/11/15 05:51:12;;;;;;;26.20;19.27;;;6.70;99.90;;;;;;5030247;28;20029;-75
2021/11/15 05:53:38;;;;;;;27.45;21.27;;;6.70;99.90;;;;;;5025065;28;20113;-76
2021/11/15 05:56:07;;;;;;;26.02;19.70;;;6.60;99.90;;;;;;5026361;28;20033;-74
2021/11/15 05:58:33;;;;;;;26.92;19.60;;;6.60;99.90;;;;;;5023460;28;20112;-74
2021/11/15 06:00:59;;;;;;;28.35;19.85;;;6.60;99.90;;;;;;5033866;28;20022;-76
2021/11/15 06:03:26;;;;;;;25.00;19.27;;;6.60;99.90;;;;;;5032723;28;20025;-76
2021/11/15 06:05:51;;;;;;;25.52;19.33;;;6.70;99.90;;;;;;5031121;28;20029;-75
2021/11/15 06:08:17;;;;;;;26.20;18.65;;;6.70;99.90;;;;;;5023107;28;20034;-75
2021/11/15 06:10:43;;;;;;;26.08;18.35;;;6.60;99.90;;;;;;5032902;28;20037;-75
2021/11/15 06:13:08;;;;;;;29.08;19.10;;;6.60;99.90;;;;;;5023582;28;20029;-77
2021/11/15 06:15:34;;;;;;;27.23;18.38;;;6.70;99.90;;;;;;5032558;28;20037;-77
2021/11/15 06:17:59;;;;;;;27.05;18.63;;;6.60;99.90;;;;;;5032059;28;20025;-75
2021/11/15 06:20:25;;;;;;;26.55;19.17;;;6.70;99.90;;;;;;5031629;28;20022;-76
2021/11/15 06:22:51;;;;;;;25.75;18.10;;;6.70;99.90;;;;;;5013662;28;20033;-76
2021/11/15 06:25:17;;;;;;;26.10;18.88;;;6.60;99.90;;;;;;5013775;28;20026;-76
2021/11/15 06:27:44;;;;;;;23.92;17.58;;;6.60;99.90;;;;;;5013710;28;20472;-76
2021/11/15 06:30:13;;;;;;;29.63;18.20;;;6.60;99.90;;;;;;5016034;28;20030;-75
2021/11/15 06:32:39;;;;;;;26.33;18.50;;;6.70;99.90;;;;;;5039384;28;20030;-75
2021/11/15 06:35:06;;;;;;;28.42;18.80;;;6.70;99.90;;;;;;5015915;28;20072;-75
2021/11/15 06:37:32;;;;;;;24.55;17.98;;;6.60;99.90;;;;;;5033257;28;20517;-75
2021/11/15 06:39:58;;;;;;;29.00;19.30;;;6.60;99.90;;;;;;5029497;28;20033;-75
2021/11/15 06:42:24;;;;;;;28.45;18.55;;;6.60;99.90;;;;;;5013206;28;20096;-75
2021/11/15 06:44:49;;;;;;;27.52;17.92;;;6.60;99.90;;;;;;5012126;28;20032;-75
2021/11/15 06:47:15;;;;;;;28.23;17.77;;;6.60;99.90;;;;;;5013278;28;20033;-75
2021/11/15 06:49:40;;;;;;;25.35;18.13;;;6.60;99.90;;;;;;5013323;28;20049;-75
2021/11/15 06:52:06;;;;;;;26.58;18.38;;;6.70;99.90;;;;;;5023250;28;20025;-75
2021/11/15 06:54:32;;;;;;;29.90;18.90;;;6.70;99.90;;;;;;5029337;28;20033;-75
2021/11/15 06:56:57;;;;;;;26.48;18.17;;;6.70;99.90;;;;;;5013097;28;20484;-75
2021/11/15 06:59:23;;;;;;;28.73;19.50;;;6.70;99.90;;;;;;5013071;28;20032;-75
2021/11/15 07:01:49;;;;;;;24.80;17.45;;;6.70;99.90;;;;;;5013101;28;20076;-75
2021/11/15 07:04:14;;;;;;;26.80;18.08;;;6.80;99.90;;;;;;5016388;28;20022;-74
2021/11/15 07:06:42;;;;;;;28.23;18.73;;;6.80;99.90;;;;;;5034935;28;20044;-79
2021/11/15 07:09:08;;;;;;;27.65;18.25;;;7.00;99.90;;;;;;5019531;28;20484;-75
2021/11/15 07:11:35;;;;;;;31.08;19.58;;;6.80;99.90;;;;;;5031251;28;20063;-75
2021/11/15 07:14:01;;;;;;;25.60;17.65;;;6.80;99.90;;;;;;5019192;28;20017;-75
2021/11/15 07:16:27;;;;;;;26.58;18.92;;;6.70;99.90;;;;;;5032526;28;20056;-75
2021/11/15 07:18:53;;;;;;;25.98;18.02;;;6.80;99.90;;;;;;5014617;28;20041;-75
2021/11/15 07:21:22;;;;;;;25.70;18.52;;;6.70;99.90;;;;;;5021106;28;20032;-75
2021/11/15 07:23:49;;;;;;;33.10;20.83;;;6.70;99.90;;;;;;5029889;28;20029;-75
2021/11/15 07:26:15;;;;;;;30.58;21.13;;;6.70;99.90;;;;;;5031188;28;20072;-75
2021/11/15 07:28:41;;;;;;;34.30;22.60;;;6.50;99.90;;;;;;5032287;28;20030;-73
2021/11/15 07:31:08;;;;;;;33.80;22.33;;;6.50;99.90;;;;;;5020942;28;20021;-72
2021/11/15 07:33:34;;;;;;;33.47;22.17;;;6.60;99.90;;;;;;5025523;28;20113;-73
2021/11/15 07:36:00;;;;;;;34.65;21.95;;;6.50;99.90;;;;;;5012584;28;20026;-73
2021/11/15 07:38:26;;;;;;;35.03;23.33;;;6.60;99.90;;;;;;5030034;28;20589;-74
2021/11/15 07:40:51;;;;;;;38.38;23.63;;;6.60;99.90;;;;;;5032064;28;20037;-74
2021/11/15 07:43:17;;;;;;;31.45;21.35;;;6.60;99.90;;;;;;5014534;28;20495;-74
2021/11/15 07:45:44;;;;;;;35.55;22.23;;;6.60;99.90;;;;;;5023405;28;20028;-74
2021/11/15 07:48:10;;;;;;;33.13;22.65;;;6.50;99.90;;;;;;5017410;28;20060;-74
2021/11/15 07:50:36;;;;;;;35.35;23.92;;;6.50;99.90;;;;;;5020679;28;20496;-74
2021/11/15 07:53:03;;;;;;;35.50;23.17;;;6.60;99.90;;;;;;5028837;28;20025;-74
2021/11/15 07:55:29;;;;;;;36.88;23.10;;;6.70;99.90;;;;;;5020551;28;20472;-73
2021/11/15 07:57:56;;;;;;;33.72;22.42;;;6.70;99.90;;;;;;5012072;28;20038;-74
2021/11/15 08:00:24;;;;;;;35.33;23.73;;;6.80;99.90;;;;;;5010960;28;20065;-74
2021/11/15 08:02:50;;;;;;;37.65;23.58;;;6.70;99.90;;;;;;5030162;28;20018;-74
2021/11/15 08:05:18;;;;;;;35.42;22.80;;;6.70;99.90;;;;;;5031970;28;20080;-74
2021/11/15 08:07:44;;;;;;;35.15;22.95;;;6.80;99.90;;;;;;5025587;28;20029;-75
2021/11/15 08:10:12;;;;;;;36.10;22.42;;;6.70;99.90;;;;;;5022468;28;20022;-74
2021/11/15 08:12:41;;;;;;;32.47;21.67;;;6.70;99.90;;;;;;5016887;28;20511;-75
2021/11/15 08:15:08;;;;;;;36.90;22.85;;;6.80;99.90;;;;;;5019625;28;20022;-74
2021/11/15 08:17:37;;;;;;;35.00;23.13;;;6.70;99.90;;;;;;5029387;28;20387;-75
2021/11/15 08:20:04;;;;;;;34.28;22.45;;;6.60;99.90;;;;;;5019164;28;20029;-75
2021/11/15 08:22:30;;;;;;;37.90;23.38;;;6.70;99.90;;;;;;5023537;28;20041;-75
2021/11/15 08:25:44;;;;;;;38.63;24.95;;;6.70;99.90;;;;;;5024536;28;20387;-74
2021/11/15 08:28:09;;;;;;;38.47;23.85;;;6.70;99.90;;;;;;5010147;28;20109;-74
2021/11/15 08:30:35;;;;;;;37.30;23.52;;;6.70;99.90;;;;;;5031815;28;20053;-74
2021/11/15 08:33:02;;;;;;;42.00;25.40;;;6.70;99.90;;;;;;5035668;28;20087;-75
2021/11/15 08:35:27;;;;;;;39.25;23.88;;;6.70;99.90;;;;;;5027780;28;20125;-74
2021/11/15 08:38:29;;;;;;;37.75;23.27;;;6.60;99.90;;;;;;5014570;28;20117;-75
2021/11/15 08:40:55;;;;;;;32.33;22.10;;;6.60;99.90;;;;;;5027544;28;20021;-74
2021/11/15 08:43:22;;;;;;;36.22;23.05;;;6.60;99.90;;;;;;5035433;28;20032;-75
2021/11/15 08:45:49;;;;;;;35.40;21.90;;;6.70;99.90;;;;;;5022665;28;20033;-75
2021/11/15 08:48:15;;;;;;;36.70;23.15;;;6.60;99.90;;;;;;5028725;28;20117;-75
2021/11/15 08:50:41;;;;;;;40.75;23.27;;;6.70;99.90;;;;;;5026985;28;20475;-75
2021/11/15 08:53:07;;;;;;;35.42;23.55;;;6.70;99.90;;;;;;5022019;28;20095;-74
2021/11/15 08:55:33;;;;;;;37.63;23.30;;;6.80;99.90;;;;;;5023637;28;20037;-74
2021/11/15 08:58:00;;;;;;;35.15;22.30;;;6.80;99.90;;;;;;5019905;28;20029;-75
2021/11/15 09:00:27;;;;;;;35.67;22.08;;;6.80;99.90;;;;;;5023526;28;20067;-75
2021/11/15 09:02:53;;;;;;;42.50;23.58;;;6.90;99.90;;;;;;5015269;28;20022;-75
2021/11/15 09:05:19;;;;;;;34.25;21.20;;;7.00;99.90;;;;;;5027297;28;20026;-75
2021/11/15 09:07:45;;;;;;;34.58;22.20;;;7.00;99.90;;;;;;5020448;28;20029;-75
2021/11/15 09:10:12;;;;;;;38.03;23.10;;;7.00;99.90;;;;;;5023545;28;20026;-74
2021/11/15 09:12:39;;;;;;;33.95;21.70;;;7.00;99.90;;;;;;5020186;28;20055;-74
2021/11/15 09:15:07;;;;;;;40.13;24.60;;;7.10;99.90;;;;;;5034865;28;20126;-74
2021/11/15 09:17:34;;;;;;;39.78;23.40;;;7.10;99.90;;;;;;5021457;28;20147;-74
2021/11/15 09:20:02;;;;;;;39.72;23.58;;;7.20;99.90;;;;;;5021095;28;20527;-74
2021/11/15 09:22:27;;;;;;;34.75;23.70;;;7.10;99.90;;;;;;5028145;28;20018;-74
2021/11/15 09:24:53;;;;;;;34.67;22.00;;;7.10;99.90;;;;;;5027394;28;20033;-74
2021/11/15 09:27:19;;;;;;;36.08;22.80;;;7.00;99.90;;;;;;5020059;28;20105;-73
2021/11/15 09:29:46;;;;;;;32.60;21.80;;;7.10;99.90;;;;;;5021084;28;20022;-73
2021/11/15 09:32:14;;;;;;;38.17;23.50;;;7.10;99.90;;;;;;5028226;28;20025;-73
2021/11/15 09:34:41;;;;;;;40.85;25.48;;;7.20;99.90;;;;;;5028132;28;20036;-74
2021/11/15 09:37:08;;;;;;;49.35;29.50;;;7.10;99.90;;;;;;5034414;28;20387;-74
2021/11/15 09:39:34;;;;;;;156.25;76.72;;;7.10;99.90;;;;;;5033978;28;20029;-74
2021/11/15 09:42:00;;;;;;;37.03;23.65;;;7.10;99.90;;;;;;5019069;28;20036;-74
2021/11/15 09:44:26;;;;;;;34.28;22.23;;;7.20;99.90;;;;;;5020911;28;20018;-74
2021/11/15 09:46:52;;;;;;;32.22;20.60;;;7.10;99.90;;;;;;5027444;28;20020;-74
2021/11/15 09:49:18;;;;;;;35.13;21.80;;;7.10;99.90;;;;;;5014630;28;20408;-73
2021/11/15 09:51:46;;;;;;;32.17;20.42;;;7.10;99.90;;;;;;5042587;28;20026;-72
2021/11/15 09:54:13;;;;;;;34.05;21.25;;;7.10;99.90;;;;;;5027478;28;20048;-73
2021/11/15 09:56:39;;;;;;;29.52;19.88;;;7.30;99.90;;;;;;5014068;28;20428;-73
2021/11/15 09:59:07;;;;;;;29.88;20.08;;;7.20;99.90;;;;;;5014180;28;20113;-75
2021/11/15 10:01:33;;;;;;;29.88;19.20;;;7.20;99.90;;;;;;5014110;28;20018;-73
2021/11/15 10:03:59;;;;;;;30.40;20.30;;;7.20;99.90;;;;;;5027647;28;20022;-73
2021/11/15 10:06:24;;;;;;;29.10;19.15;;;7.30;99.90;;;;;;5021242;28;20472;-73
2021/11/15 10:08:53;;;;;;;31.23;19.60;;;7.40;99.90;;;;;;5020699;28;20384;-72
2021/11/15 10:11:21;;;;;;;27.95;18.27;;;7.30;99.90;;;;;;5033573;28;20380;-73
2021/11/15 10:13:47;;;;;;;29.02;18.40;;;7.40;99.90;;;;;;5017773;28;20030;-73
2021/11/15 10:16:21;;;;;;;28.42;18.35;;;7.50;99.90;;;;;;5024872;28;20033;-73
2021/11/15 10:18:58;;;;;;;26.00;18.27;;;7.50;99.90;;;;;;5032341;28;20489;-74
2021/11/15 10:21:48;;;;;;;29.10;19.85;;;7.50;99.90;;;;;;5022816;28;20638;-73
2021/11/15 10:24:31;;;;;;;29.60;19.50;;;7.50;99.90;;;;;;5021092;28;20084;-73
2021/11/15 10:27:00;;;;;;;29.77;19.38;;;7.50;99.90;;;;;;5030250;28;20472;-72
2021/11/15 10:29:34;;;;;;;35.70;22.40;;;7.50;99.90;;;;;;5023217;28;20080;-73
2021/11/15 10:32:16;;;;;;;29.45;20.90;;;7.50;99.90;;;;;;5036854;28;20567;-74
2021/11/15 10:34:43;;;;;;;29.05;20.25;;;7.50;99.90;;;;;;5019651;28;20030;-73
2021/11/15 10:37:25;;;;;;;29.70;19.90;;;7.50;99.90;;;;;;5013350;28;20400;-73
2021/11/15 10:39:55;;;;;;;30.75;20.20;;;7.40;99.90;;;;;;5014639;28;20033;-73
2021/11/15 10:42:31;;;;;;;27.77;18.65;;;7.40;99.90;;;;;;5048316;28;20033;-73
2021/11/15 10:45:01;;;;;;;31.70;20.92;;;7.50;99.90;;;;;;5019670;28;20052;-73
2021/11/15 10:47:36;;;;;;;27.45;18.58;;;7.50;99.90;;;;;;5021532;28;20025;-74
2021/11/15 10:50:07;;;;;;;27.08;18.15;;;7.60;99.90;;;;;;5032406;28;20035;-73
2021/11/15 10:52:36;;;;;;;31.17;19.20;;;7.50;99.90;;;;;;5032761;28;20025;-74
2021/11/15 10:55:05;;;;;;;30.70;19.63;;;7.60;99.90;;;;;;5024676;28;20079;-73
2021/11/15 10:57:45;;;;;;;27.67;17.90;;;7.60;99.90;;;;;;5027022;28;20110;-73
2021/11/15 11:00:34;;;;;;;29.98;20.35;;;7.70;99.90;;;;;;5023576;28;20502;-73
2021/11/15 11:03:10;;;;;;;31.90;20.20;;;7.70;99.90;;;;;;5026001;28;20032;-73
2021/11/15 11:05:43;;;;;;;27.05;18.35;;;7.70;99.90;;;;;;5025601;28;20041;-73
2021/11/15 11:08:14;;;;;;;28.13;19.40;;;7.80;99.90;;;;;;5019470;28;20044;-73
2021/11/15 11:10:52;;;;;;;30.05;19.38;;;7.80;99.90;;;;;;5032282;28;20056;-73
2021/11/15 11:13:19;;;;;;;32.15;19.98;;;7.90;99.90;;;;;;5031317;28;20034;-73
2021/11/15 11:15:47;;;;;;;29.83;19.92;;;7.80;99.90;;;;;;5032218;28;20021;-74
2021/11/15 11:18:45;;;;;;;32.78;20.92;;;7.90;99.90;;;;;;5032322;28;20120;-73
2021/11/15 11:21:30;;;;;;;29.35;19.98;;;8.00;99.90;;;;;;5021633;28;20040;-73
2021/11/15 11:26:36;;;;;;;28.90;19.38;;;8.20;99.90;;;;;;5032267;28;20021;-73
2021/11/15 11:29:08;;;;;;;30.75;20.23;;;8.10;99.90;;;;;;5032194;28;20040;-73
2021/11/15 11:31:36;;;;;;;29.98;19.58;;;8.10;99.90;;;;;;5032205;28;20480;-73
2021/11/15 11:34:02;;;;;;;31.83;20.25;;;8.00;99.90;;;;;;5030978;28;20570;-73
2021/11/15 11:36:28;;;;;;;32.88;20.10;;;8.00;99.90;;;;;;5031985;28;20086;-74
2021/11/15 11:38:55;;;;;;;30.60;19.17;;;8.00;99.90;;;;;;5028768;28;20033;-73
2021/11/15 11:41:22;;;;;;;32.13;20.13;;;8.00;99.90;;;;;;5030821;28;20392;-73
2021/11/15 11:43:49;;;;;;;32.42;20.52;;;8.00;99.90;;;;;;5023387;28;20053;-73
2021/11/15 11:46:17;;;;;;;32.00;19.85;;;8.00;99.90;;;;;;5027434;28;20029;-73
2021/11/15 11:48:51;;;;;;;29.33;20.65;;;8.00;99.90;;;;;;5032077;28;20483;-73
2021/11/15 11:51:17;;;;;;;32.15;20.42;;;8.00;99.90;;;;;;5015131;28;20534;-73
2021/11/15 11:53:43;;;;;;;29.80;19.95;;;8.10;99.90;;;;;;5022177;28;20044;-73
2021/11/15 11:56:21;;;;;;;30.52;20.05;;;8.20;99.90;;;;;;5018709;28;20495;-72
2021/11/15 11:58:49;;;;;;;32.47;21.13;;;8.30;99.90;;;;;;5035524;28;20056;-73
2021/11/15 12:01:24;;;;;;;28.95;19.35;;;8.10;99.90;;;;;;5030386;28;20436;-74
2021/11/15 12:04:18;;;;;;;28.48;19.58;;;8.20;99.90;;;;;;5030675;28;20071;-73
2021/11/15 12:06:45;;;;;;;28.27;18.60;;;8.20;99.90;;;;;;5021287;28;20046;-73
2021/11/15 12:09:11;;;;;;;26.45;18.25;;;8.30;99.90;;;;;;5017326;28;20026;-73
2021/11/15 12:11:40;;;;;;;27.00;18.13;;;8.30;99.90;;;;;;5031302;28;20168;-73
2021/11/15 12:14:08;;;;;;;29.30;19.45;;;8.30;99.90;;;;;;5026236;28;20030;-73
2021/11/15 12:16:53;;;;;;;29.50;18.70;;;8.30;99.90;;;;;;5018282;28;20112;-73
2021/11/15 12:19:22;;;;;;;29.38;19.33;;;8.40;99.90;;;;;;5039296;28;20086;-73
2021/11/15 12:21:47;;;;;;;27.70;18.98;;;8.40;99.90;;;;;;5045273;28;20018;-72
2021/11/15 12:24:17;;;;;;;32.85;22.63;;;8.30;99.90;;;;;;5029517;28;20022;-73
2021/11/15 12:26:50;;;;;;;31.52;19.23;;;8.30;99.90;;;;;;5030236;28;20022;-73
2021/11/15 12:29:44;;;;;;;26.38;18.23;;;8.30;99.90;;;;;;5038002;28;20055;-73
2021/11/15 12:32:15;;;;;;;24.35;16.77;;;8.20;99.90;;;;;;5038266;28;20128;-73
2021/11/15 12:34:59;;;;;;;25.35;17.80;;;8.30;99.90;;;;;;5046165;28;20025;-73
2021/11/15 12:37:45;;;;;;;28.45;18.13;;;8.40;99.90;;;;;;5040632;28;20060;-73
2021/11/15 12:40:33;;;;;;;24.80;17.50;;;8.40;99.90;;;;;;5039515;28;20025;-73
2021/11/15 12:43:12;;;;;;;27.88;17.98;;;8.40;99.90;;;;;;5033508;28;20143;-73